sensor_id;sensor_type;location;lat;lon;timestamp;pressure;altitude;pressure_sealevel;temperature;humidity
21102;BME280;10709;49.006;12.100;2023-03-18T00:01:11;48655.94;;;-146.00;68.36
21102;BME280;10709;49.006;12.100;2023-03-18T00:03:37;48650.06;;;-146.00;67.55
21102;BME280;10709;49.006;12.100;2023-03-18T00:06:07;48652.00;;;-146.00;67.38
21102;BME280;10709;49.006;12.100;2023-03-18T00:08:34;48648.09;;;-146.00;67.40
21102;BME280;10709;49.006;12.100;2023-03-18T00:11:01;48667.69;;;-146.00;67.95
21102;BME280;10709;49.006;12.100;2023-03-18T00:13:27;48646.13;;;-146.00;67.53
21102;BME280;10709;49.006;12.100;2023-03-18T00:15:54;48659.84;;;-146.00;67.95
21102;BME280;10709;49.006;12.100;2023-03-18T00:18:20;48681.41;;;-146.00;67.71
21102;BME280;10709;49.006;12.100;2023-03-18T00:20:47;48652.00;;;-146.00;67.40
21102;BME280;10709;49.006;12.100;2023-03-18T00:23:14;48655.94;;;-146.00;67.82
21102;BME280;10709;49.006;12.100;2023-03-18T00:25:41;48648.09;;;-146.00;68.55
21102;BME280;10709;49.006;12.100;2023-03-18T00:28:08;48620.66;;;-146.00;67.94
21102;BME280;10709;49.006;12.100;2023-03-18T00:30:37;48640.25;;;-146.00;68.18
21102;BME280;10709;49.006;12.100;2023-03-18T00:33:04;48665.72;;;-146.00;68.30
21102;BME280;10709;49.006;12.100;2023-03-18T00:35:31;48665.72;;;-146.00;69.01
21102;BME280;10709;49.006;12.100;2023-03-18T00:37:58;48659.84;;;-146.00;68.91
21102;BME280;10709;49.006;12.100;2023-03-18T00:40:25;48653.97;;;-146.00;68.99
21102;BME280;10709;49.006;12.100;2023-03-18T00:42:56;48667.69;;;-146.00;68.92
21102;BME280;10709;49.006;12.100;2023-03-18T00:45:27;48663.75;;;-146.00;68.59
21102;BME280;10709;49.006;12.100;2023-03-18T00:47:53;48648.09;;;-146.00;69.30
21102;BME280;10709;49.006;12.100;2023-03-18T00:50:20;48652.00;;;-146.00;69.01
21102;BME280;10709;49.006;12.100;2023-03-18T00:52:46;48657.88;;;-146.00;69.15
21102;BME280;10709;49.006;12.100;2023-03-18T00:55:14;48673.56;;;-146.00;69.00
21102;BME280;10709;49.006;12.100;2023-03-18T00:57:41;48636.34;;;-146.00;69.42
21102;BME280;10709;49.006;12.100;2023-03-18T01:00:08;48628.50;;;-146.00;69.66
21102;BME280;10709;49.006;12.100;2023-03-18T01:02:35;48648.09;;;-146.00;69.87
21102;BME280;10709;49.006;12.100;2023-03-18T01:05:01;48685.31;;;-146.00;69.61
21102;BME280;10709;49.006;12.100;2023-03-18T01:07:29;48648.09;;;-146.00;69.42
21102;BME280;10709;49.006;12.100;2023-03-18T01:09:55;48648.09;;;-146.00;69.42
21102;BME280;10709;49.006;12.100;2023-03-18T01:12:22;48636.34;;;-146.00;69.46
21102;BME280;10709;49.006;12.100;2023-03-18T01:14:50;48644.16;;;-146.00;69.18
21102;BME280;10709;49.006;12.100;2023-03-18T01:17:17;48685.31;;;-146.00;69.42
21102;BME280;10709;49.006;12.100;2023-03-18T01:19:44;48620.66;;;-146.00;69.56
21102;BME280;10709;49.006;12.100;2023-03-18T01:22:11;48657.88;;;-146.00;69.41
21102;BME280;10709;49.006;12.100;2023-03-18T01:24:37;48659.84;;;-146.00;69.76
21102;BME280;10709;49.006;12.100;2023-03-18T01:27:05;48659.84;;;-146.00;70.12
21102;BME280;10709;49.006;12.100;2023-03-18T01:29:31;48648.09;;;-146.00;69.88
21102;BME280;10709;49.006;12.100;2023-03-18T01:31:58;48632.41;;;-146.00;69.87
21102;BME280;10709;49.006;12.100;2023-03-18T01:34:25;48659.84;;;-146.00;69.51
21102;BME280;10709;49.006;12.100;2023-03-18T01:36:52;48655.94;;;-146.00;70.06
21102;BME280;10709;49.006;12.100;2023-03-18T01:39:19;48630.47;;;-146.00;69.56
21102;BME280;10709;49.006;12.100;2023-03-18T01:41:46;48652.00;;;-146.00;70.24
21102;BME280;10709;49.006;12.100;2023-03-18T01:44:15;48665.72;;;-146.00;70.22
21102;BME280;10709;49.006;12.100;2023-03-18T01:46:47;48648.09;;;-146.00;70.18
21102;BME280;10709;49.006;12.100;2023-03-18T01:49:23;48644.16;;;-146.00;70.81
21102;BME280;10709;49.006;12.100;2023-03-18T01:51:57;48665.72;;;-146.00;70.76
21102;BME280;10709;49.006;12.100;2023-03-18T01:54:26;48667.69;;;-146.00;70.63
21102;BME280;10709;49.006;12.100;2023-03-18T01:56:54;48677.47;;;-146.00;71.06
21102;BME280;10709;49.006;12.100;2023-03-18T01:59:23;48620.66;;;-146.00;70.98
21102;BME280;10709;49.006;12.100;2023-03-18T02:02:01;48657.88;;;-146.00;71.32
21102;BME280;10709;49.006;12.100;2023-03-18T02:08:44;48673.56;;;-146.00;71.49
21102;BME280;10709;49.006;12.100;2023-03-18T02:11:31;48657.88;;;-146.00;71.82
21102;BME280;10709;49.006;12.100;2023-03-18T02:13:59;48628.50;;;-146.00;71.97
21102;BME280;10709;49.006;12.100;2023-03-18T02:16:31;48663.75;;;-146.00;72.05
21102;BME280;10709;49.006;12.100;2023-03-18T02:19:06;48640.25;;;-146.00;72.19
21102;BME280;10709;49.006;12.100;2023-03-18T02:27:45;48679.44;;;-146.00;72.00
21102;BME280;10709;49.006;12.100;2023-03-18T02:30:23;48657.88;;;-146.00;71.86
21102;BME280;10709;49.006;12.100;2023-03-18T02:32:51;48648.09;;;-146.00;71.02
21102;BME280;10709;49.006;12.100;2023-03-18T02:35:20;48644.16;;;-146.00;72.00
21102;BME280;10709;49.006;12.100;2023-03-18T02:37:47;48632.41;;;-146.00;71.60
21102;BME280;10709;49.006;12.100;2023-03-18T02:42:49;48638.28;;;-146.00;71.75
21102;BME280;10709;49.006;12.100;2023-03-18T02:45:29;48648.09;;;-146.00;72.28
21102;BME280;10709;49.006;12.100;2023-03-18T02:48:01;48652.00;;;-146.00;72.54
21102;BME280;10709;49.006;12.100;2023-03-18T02:50:30;48657.88;;;-146.00;72.41
21102;BME280;10709;49.006;12.100;2023-03-18T02:52:58;48638.28;;;-146.00;72.16
21102;BME280;10709;49.006;12.100;2023-03-18T02:55:24;48636.34;;;-146.00;72.17
21102;BME280;10709;49.006;12.100;2023-03-18T02:57:51;48626.53;;;-146.00;72.25
21102;BME280;10709;49.006;12.100;2023-03-18T03:00:17;48657.88;;;-146.00;72.21
21102;BME280;10709;49.006;12.100;2023-03-18T03:02:44;48659.84;;;-146.00;72.81
21102;BME280;10709;49.006;12.100;2023-03-18T03:05:10;48644.16;;;-146.00;71.96
21102;BME280;10709;49.006;12.100;2023-03-18T03:07:37;48620.66;;;-146.00;72.60
21102;BME280;10709;49.006;12.100;2023-03-18T03:10:05;48655.94;;;-146.00;72.15
21102;BME280;10709;49.006;12.100;2023-03-18T03:12:32;48648.09;;;-146.00;72.40
21102;BME280;10709;49.006;12.100;2023-03-18T03:14:58;48634.38;;;-146.00;72.29
21102;BME280;10709;49.006;12.100;2023-03-18T03:17:26;48675.50;;;-146.00;72.19
21102;BME280;10709;49.006;12.100;2023-03-18T03:19:52;48671.59;;;-146.00;72.81
21102;BME280;10709;49.006;12.100;2023-03-18T03:22:19;48683.34;;;-146.00;72.63
21102;BME280;10709;49.006;12.100;2023-03-18T03:24:45;48650.06;;;-146.00;72.88
21102;BME280;10709;49.006;12.100;2023-03-18T03:27:11;48644.16;;;-146.00;72.34
21102;BME280;10709;49.006;12.100;2023-03-18T03:29:38;48644.16;;;-146.00;72.03
21102;BME280;10709;49.006;12.100;2023-03-18T03:32:05;48642.22;;;-146.00;72.47
21102;BME280;10709;49.006;12.100;2023-03-18T03:34:31;48634.38;;;-146.00;72.78
21102;BME280;10709;49.006;12.100;2023-03-18T03:36:58;48659.84;;;-146.00;72.85
21102;BME280;10709;49.006;12.100;2023-03-18T03:39:25;48636.34;;;-146.00;72.88
21102;BME280;10709;49.006;12.100;2023-03-18T03:41:52;48675.50;;;-146.00;72.98
21102;BME280;10709;49.006;12.100;2023-03-18T03:44:19;48644.16;;;-146.00;73.07
21102;BME280;10709;49.006;12.100;2023-03-18T03:46:45;48655.94;;;-146.00;73.07
21102;BME280;10709;49.006;12.100;2023-03-18T03:49:12;48671.59;;;-146.00;73.48
21102;BME280;10709;49.006;12.100;2023-03-18T03:51:38;48652.00;;;-146.00;73.44
21102;BME280;10709;49.006;12.100;2023-03-18T03:54:05;48648.09;;;-146.00;73.24
21102;BME280;10709;49.006;12.100;2023-03-18T03:56:31;48640.25;;;-146.00;73.10
21102;BME280;10709;49.006;12.100;2023-03-18T03:58:58;48646.13;;;-146.00;73.20
21102;BME280;10709;49.006;12.100;2023-03-18T04:01:25;48661.81;;;-146.00;73.34
21102;BME280;10709;49.006;12.100;2023-03-18T04:03:52;48648.09;;;-146.00;72.93
21102;BME280;10709;49.006;12.100;2023-03-18T04:06:19;48628.50;;;-146.00;73.63
21102;BME280;10709;49.006;12.100;2023-03-18T04:08:45;48652.00;;;-146.00;73.67
21102;BME280;10709;49.006;12.100;2023-03-18T04:11:12;48640.25;;;-146.00;73.26
21102;BME280;10709;49.006;12.100;2023-03-18T04:13:38;48636.34;;;-146.00;72.81
21102;BME280;10709;49.006;12.100;2023-03-18T04:16:05;48644.16;;;-146.00;73.20
21102;BME280;10709;49.006;12.100;2023-03-18T04:18:33;48652.00;;;-146.00;73.34
21102;BME280;10709;49.006;12.100;2023-03-18T04:20:59;48648.09;;;-146.00;72.90
21102;BME280;10709;49.006;12.100;2023-03-18T04:23:25;48659.84;;;-146.00;73.05
21102;BME280;10709;49.006;12.100;2023-03-18T04:25:52;48628.50;;;-146.00;73.25
21102;BME280;10709;49.006;12.100;2023-03-18T04:28:19;48630.47;;;-146.00;73.73
21102;BME280;10709;49.006;12.100;2023-03-18T04:30:47;48671.59;;;-146.00;74.03
21102;BME280;10709;49.006;12.100;2023-03-18T04:33:14;48671.59;;;-146.00;73.94
21102;BME280;10709;49.006;12.100;2023-03-18T04:35:40;48632.41;;;-146.00;73.70
21102;BME280;10709;49.006;12.100;2023-03-18T04:38:10;48667.69;;;-146.00;73.69
21102;BME280;10709;49.006;12.100;2023-03-18T04:40:37;48652.00;;;-146.00;73.68
21102;BME280;10709;49.006;12.100;2023-03-18T04:43:03;48640.25;;;-146.00;74.97
21102;BME280;10709;49.006;12.100;2023-03-18T04:45:30;48665.72;;;-146.00;73.91
21102;BME280;10709;49.006;12.100;2023-03-18T04:47:56;48659.84;;;-146.00;74.36
21102;BME280;10709;49.006;12.100;2023-03-18T04:50:23;48655.94;;;-146.00;74.43
21102;BME280;10709;49.006;12.100;2023-03-18T04:52:50;48648.09;;;-146.00;74.71
21102;BME280;10709;49.006;12.100;2023-03-18T04:55:16;48628.50;;;-146.00;74.51
21102;BME280;10709;49.006;12.100;2023-03-18T04:57:47;48650.06;;;-146.00;74.36
21102;BME280;10709;49.006;12.100;2023-03-18T05:00:16;48634.38;;;-146.00;74.22
21102;BME280;10709;49.006;12.100;2023-03-18T05:02:42;48644.16;;;-146.00;74.20
21102;BME280;10709;49.006;12.100;2023-03-18T05:05:09;48636.34;;;-146.00;74.20
21102;BME280;10709;49.006;12.100;2023-03-18T05:07:35;48663.75;;;-146.00;74.14
21102;BME280;10709;49.006;12.100;2023-03-18T05:10:04;48657.88;;;-146.00;74.65
21102;BME280;10709;49.006;12.100;2023-03-18T05:12:32;48624.59;;;-146.00;74.18
21102;BME280;10709;49.006;12.100;2023-03-18T05:14:59;48655.94;;;-146.00;74.41
21102;BME280;10709;49.006;12.100;2023-03-18T05:17:25;48652.00;;;-146.00;74.51
21102;BME280;10709;49.006;12.100;2023-03-18T05:19:52;48636.34;;;-146.00;74.54
21102;BME280;10709;49.006;12.100;2023-03-18T05:22:19;48652.00;;;-146.00;74.32
21102;BME280;10709;49.006;12.100;2023-03-18T05:24:47;48671.59;;;-146.00;74.11
21102;BME280;10709;49.006;12.100;2023-03-18T05:27:16;48632.41;;;-146.00;74.55
21102;BME280;10709;49.006;12.100;2023-03-18T05:29:44;48632.41;;;-146.00;74.35
21102;BME280;10709;49.006;12.100;2023-03-18T05:32:11;48648.09;;;-146.00;74.60
21102;BME280;10709;49.006;12.100;2023-03-18T05:34:39;48650.06;;;-146.00;74.70
21102;BME280;10709;49.006;12.100;2023-03-18T05:37:07;48628.50;;;-146.00;74.84
21102;BME280;10709;49.006;12.100;2023-03-18T05:39:35;48616.75;;;-146.00;75.00
21102;BME280;10709;49.006;12.100;2023-03-18T05:42:03;48632.41;;;-146.00;74.91
21102;BME280;10709;49.006;12.100;2023-03-18T05:44:30;48646.13;;;-146.00;75.27
21102;BME280;10709;49.006;12.100;2023-03-18T05:46:57;48659.84;;;-146.00;75.54
21102;BME280;10709;49.006;12.100;2023-03-18T05:49:24;48663.75;;;-146.00;75.50
21102;BME280;10709;49.006;12.100;2023-03-18T05:51:50;48663.75;;;-146.00;75.82
21102;BME280;10709;49.006;12.100;2023-03-18T05:54:20;48667.69;;;-146.00;77.10
21102;BME280;10709;49.006;12.100;2023-03-18T05:56:47;48652.00;;;-146.00;77.41
21102;BME280;10709;49.006;12.100;2023-03-18T05:59:13;48687.28;;;-146.00;77.00
21102;BME280;10709;49.006;12.100;2023-03-18T06:01:40;48661.81;;;-146.00;77.44
21102;BME280;10709;49.006;12.100;2023-03-18T06:04:07;48671.59;;;-146.00;77.03
21102;BME280;10709;49.006;12.100;2023-03-18T06:06:36;48679.44;;;-146.00;77.07
21102;BME280;10709;49.006;12.100;2023-03-18T06:09:07;48667.69;;;-146.00;77.18
21102;BME280;10709;49.006;12.100;2023-03-18T06:11:34;48655.94;;;-146.00;77.38
21102;BME280;10709;49.006;12.100;2023-03-18T06:14:00;48671.59;;;-146.00;77.32
21102;BME280;10709;49.006;12.100;2023-03-18T06:16:27;48669.63;;;-146.00;77.55
21102;BME280;10709;49.006;12.100;2023-03-18T06:18:54;48671.59;;;-146.00;77.73
21102;BME280;10709;49.006;12.100;2023-03-18T06:21:20;48687.28;;;-146.00;77.89
21102;BME280;10709;49.006;12.100;2023-03-18T06:23:47;48655.94;;;-146.00;78.21
21102;BME280;10709;49.006;12.100;2023-03-18T06:26:14;48691.19;;;-146.00;78.53
21102;BME280;10709;49.006;12.100;2023-03-18T06:28:41;48679.44;;;-146.00;79.02
21102;BME280;10709;49.006;12.100;2023-03-18T06:31:08;48702.94;;;-146.00;79.47
21102;BME280;10709;49.006;12.100;2023-03-18T06:33:36;48671.59;;;-146.00;79.91
21102;BME280;10709;49.006;12.100;2023-03-18T06:36:03;48706.84;;;-146.00;80.17
21102;BME280;10709;49.006;12.100;2023-03-18T06:38:30;48714.69;;;-146.00;79.69
21102;BME280;10709;49.006;12.100;2023-03-18T06:40:58;48691.19;;;-146.00;79.89
21102;BME280;10709;49.006;12.100;2023-03-18T06:43:25;48702.94;;;-146.00;80.33
21102;BME280;10709;49.006;12.100;2023-03-18T06:45:52;48710.78;;;-146.00;80.83
21102;BME280;10709;49.006;12.100;2023-03-18T06:48:19;48700.97;;;-146.00;80.82
21102;BME280;10709;49.006;12.100;2023-03-18T06:50:45;48693.16;;;-146.00;81.25
21102;BME280;10709;49.006;12.100;2023-03-18T06:53:11;48710.78;;;-146.00;81.53
21102;BME280;10709;49.006;12.100;2023-03-18T06:55:39;48699.03;;;-146.00;81.62
21102;BME280;10709;49.006;12.100;2023-03-18T06:58:06;48718.59;;;-146.00;81.81
21102;BME280;10709;49.006;12.100;2023-03-18T07:00:33;48740.16;;;-146.00;81.23
21102;BME280;10709;49.006;12.100;2023-03-18T07:03:01;48734.28;;;-146.00;81.04
21102;BME280;10709;49.006;12.100;2023-03-18T07:05:28;48712.72;;;-146.00;81.17
21102;BME280;10709;49.006;12.100;2023-03-18T07:07:54;48761.72;;;-146.00;81.29
21102;BME280;10709;49.006;12.100;2023-03-18T07:10:23;48712.72;;;-146.00;81.58
21102;BME280;10709;49.006;12.100;2023-03-18T07:12:50;48736.25;;;-146.00;81.18
21102;BME280;10709;49.006;12.100;2023-03-18T07:15:18;48765.63;;;-146.00;81.34
21102;BME280;10709;49.006;12.100;2023-03-18T07:17:48;48769.53;;;-146.00;81.91
21102;BME280;10709;49.006;12.100;2023-03-18T07:20:15;48738.19;;;-146.00;81.34
21102;BME280;10709;49.006;12.100;2023-03-18T07:22:43;48734.28;;;-146.00;81.91
21102;BME280;10709;49.006;12.100;2023-03-18T07:25:10;48753.88;;;-146.00;81.76
21102;BME280;10709;49.006;12.100;2023-03-18T07:27:36;48738.19;;;-146.00;82.41
21102;BME280;10709;49.006;12.100;2023-03-18T07:30:04;48730.38;;;-146.00;82.04
21102;BME280;10709;49.006;12.100;2023-03-18T07:32:31;48761.72;;;-146.00;81.75
21102;BME280;10709;49.006;12.100;2023-03-18T07:34:57;48769.53;;;-146.00;81.26
21102;BME280;10709;49.006;12.100;2023-03-18T07:37:24;48757.78;;;-146.00;81.59
21102;BME280;10709;49.006;12.100;2023-03-18T07:39:51;48738.19;;;-146.00;80.66
21102;BME280;10709;49.006;12.100;2023-03-18T07:42:18;48763.66;;;-146.00;80.21
21102;BME280;10709;49.006;12.100;2023-03-18T07:44:44;48726.44;;;-146.00;79.76
21102;BME280;10709;49.006;12.100;2023-03-18T07:47:11;48724.50;;;-146.00;80.50
21102;BME280;10709;49.006;12.100;2023-03-18T07:49:40;48706.84;;;-146.00;77.93
21102;BME280;10709;49.006;12.100;2023-03-18T07:52:07;48689.22;;;-146.00;76.97
21102;BME280;10709;49.006;12.100;2023-03-18T07:54:34;48734.28;;;-146.00;77.40
21102;BME280;10709;49.006;12.100;2023-03-18T07:57:01;48695.09;;;-146.00;77.89
21102;BME280;10709;49.006;12.100;2023-03-18T07:59:29;48683.34;;;-146.00;76.59
21102;BME280;10709;49.006;12.100;2023-03-18T08:01:55;48683.34;;;-146.00;75.73
21102;BME280;10709;49.006;12.100;2023-03-18T08:04:22;48699.03;;;-146.00;75.83
21102;BME280;10709;49.006;12.100;2023-03-18T08:06:49;48699.03;;;-146.00;75.33
21102;BME280;10709;49.006;12.100;2023-03-18T08:09:15;48663.75;;;-146.00;73.75
21102;BME280;10709;49.006;12.100;2023-03-18T08:11:42;48671.59;;;-146.00;72.27
21102;BME280;10709;49.006;12.100;2023-03-18T08:14:08;48624.59;;;-146.00;71.14
21102;BME280;10709;49.006;12.100;2023-03-18T08:16:35;48655.94;;;-146.00;70.69
21102;BME280;10709;49.006;12.100;2023-03-18T08:19:02;48677.47;;;-146.00;70.33
21102;BME280;10709;49.006;12.100;2023-03-18T08:21:29;48663.75;;;-146.00;69.71
21102;BME280;10709;49.006;12.100;2023-03-18T08:23:55;48671.59;;;-146.00;68.88
21102;BME280;10709;49.006;12.100;2023-03-18T08:26:22;48667.69;;;-146.00;69.01
21102;BME280;10709;49.006;12.100;2023-03-18T08:28:49;48663.75;;;-146.00;69.04
21102;BME280;10709;49.006;12.100;2023-03-18T08:31:15;48655.94;;;-146.00;69.38
21102;BME280;10709;49.006;12.100;2023-03-18T08:33:42;48659.84;;;-146.00;68.82
21102;BME280;10709;49.006;12.100;2023-03-18T08:36:08;48665.72;;;-146.00;68.61
21102;BME280;10709;49.006;12.100;2023-03-18T08:38:35;48675.50;;;-146.00;68.69
21102;BME280;10709;49.006;12.100;2023-03-18T08:41:01;48663.75;;;-146.00;67.81
21102;BME280;10709;49.006;12.100;2023-03-18T08:43:29;48648.09;;;-146.00;68.24
21102;BME280;10709;49.006;12.100;2023-03-18T08:45:55;48652.00;;;-146.00;66.46
21102;BME280;10709;49.006;12.100;2023-03-18T08:48:23;48648.09;;;-146.00;66.43
21102;BME280;10709;49.006;12.100;2023-03-18T08:50:50;48659.84;;;-146.00;66.99
21102;BME280;10709;49.006;12.100;2023-03-18T08:53:18;48650.06;;;-146.00;66.66
21102;BME280;10709;49.006;12.100;2023-03-18T08:55:45;48661.81;;;-146.00;66.76
21102;BME280;10709;49.006;12.100;2023-03-18T08:58:12;48638.28;;;-146.00;66.56
21102;BME280;10709;49.006;12.100;2023-03-18T09:00:39;48655.94;;;-146.00;66.01
21102;BME280;10709;49.006;12.100;2023-03-18T09:03:07;48655.94;;;-146.00;66.07
21102;BME280;10709;49.006;12.100;2023-03-18T09:05:34;48663.75;;;-146.00;66.14
21102;BME280;10709;49.006;12.100;2023-03-18T09:08:01;48659.84;;;-146.00;67.33
21102;BME280;10709;49.006;12.100;2023-03-18T09:10:27;48675.50;;;-146.00;66.49
21102;BME280;10709;49.006;12.100;2023-03-18T09:12:55;48667.69;;;-146.00;66.63
21102;BME280;10709;49.006;12.100;2023-03-18T09:15:21;48659.84;;;-146.00;67.00
21102;BME280;10709;49.006;12.100;2023-03-18T09:17:48;48657.88;;;-146.00;66.03
21102;BME280;10709;49.006;12.100;2023-03-18T09:20:33;48667.69;;;-146.00;65.66
21102;BME280;10709;49.006;12.100;2023-03-18T09:23:00;48644.16;;;-146.00;65.59
21102;BME280;10709;49.006;12.100;2023-03-18T09:25:27;48683.34;;;-146.00;65.66
21102;BME280;10709;49.006;12.100;2023-03-18T09:27:53;48679.44;;;-146.00;65.07
21102;BME280;10709;49.006;12.100;2023-03-18T09:30:20;48659.84;;;-146.00;65.08
21102;BME280;10709;49.006;12.100;2023-03-18T09:32:46;48663.75;;;-146.00;63.81
21102;BME280;10709;49.006;12.100;2023-03-18T09:35:14;48669.63;;;-146.00;63.63
21102;BME280;10709;49.006;12.100;2023-03-18T09:37:41;48648.09;;;-146.00;62.90
21102;BME280;10709;49.006;12.100;2023-03-18T09:40:18;48640.25;;;-146.00;63.58
21102;BME280;10709;49.006;12.100;2023-03-18T09:42:58;48648.09;;;-146.00;62.65
21102;BME280;10709;49.006;12.100;2023-03-18T09:45:35;48663.75;;;-146.00;62.14
21102;BME280;10709;49.006;12.100;2023-03-18T09:49:07;48667.69;;;-146.00;62.52
21102;BME280;10709;49.006;12.100;2023-03-18T09:51:31;48663.75;;;-146.00;61.82
21102;BME280;10709;49.006;12.100;2023-03-18T09:56:37;48663.75;;;-146.00;61.34
21102;BME280;10709;49.006;12.100;2023-03-18T09:59:19;48663.75;;;-146.00;61.03
21102;BME280;10709;49.006;12.100;2023-03-18T10:01:51;48669.63;;;-146.00;60.99
21102;BME280;10709;49.006;12.100;2023-03-18T10:06:52;48655.94;;;-146.00;61.79
21102;BME280;10709;49.006;12.100;2023-03-18T10:09:25;48679.44;;;-146.00;60.30
21102;BME280;10709;49.006;12.100;2023-03-18T10:12:14;48655.94;;;-146.00;60.10
21102;BME280;10709;49.006;12.100;2023-03-18T10:15:00;48663.75;;;-146.00;60.75
21102;BME280;10709;49.006;12.100;2023-03-18T10:17:41;48679.44;;;-146.00;59.41
21102;BME280;10709;49.006;12.100;2023-03-18T10:25:37;48646.13;;;-146.00;60.66
21102;BME280;10709;49.006;12.100;2023-03-18T10:30:46;48667.69;;;-146.00;60.86
21102;BME280;10709;49.006;12.100;2023-03-18T10:33:44;48679.44;;;-146.00;58.68
21102;BME280;10709;49.006;12.100;2023-03-18T10:36:24;48667.69;;;-146.00;58.62
21102;BME280;10709;49.006;12.100;2023-03-18T10:38:54;48663.75;;;-146.00;59.21
21102;BME280;10709;49.006;12.100;2023-03-18T10:41:32;48700.97;;;-146.00;59.20
21102;BME280;10709;49.006;12.100;2023-03-18T10:44:02;48657.88;;;-146.00;59.27
21102;BME280;10709;49.006;12.100;2023-03-18T10:46:30;48677.47;;;-146.00;60.19
21102;BME280;10709;49.006;12.100;2023-03-18T10:49:04;48659.84;;;-146.00;59.09
21102;BME280;10709;49.006;12.100;2023-03-18T10:51:38;48663.75;;;-146.00;58.88
21102;BME280;10709;49.006;12.100;2023-03-18T10:56:39;48652.00;;;-146.00;60.17
21102;BME280;10709;49.006;12.100;2023-03-18T10:59:16;48673.56;;;-146.00;60.04
21102;BME280;10709;49.006;12.100;2023-03-18T11:01:49;48648.09;;;-146.00;59.37
21102;BME280;10709;49.006;12.100;2023-03-18T11:04:18;48652.00;;;-146.00;60.51
21102;BME280;10709;49.006;12.100;2023-03-18T11:07:01;48659.84;;;-146.00;58.42
21102;BME280;10709;49.006;12.100;2023-03-18T11:09:34;48665.72;;;-146.00;58.76
21102;BME280;10709;49.006;12.100;2023-03-18T11:12:06;48667.69;;;-146.00;59.31
21102;BME280;10709;49.006;12.100;2023-03-18T11:14:39;48699.03;;;-146.00;58.73
21102;BME280;10709;49.006;12.100;2023-03-18T11:17:33;48655.94;;;-146.00;58.99
21102;BME280;10709;49.006;12.100;2023-03-18T11:22:51;48691.19;;;-146.00;59.35
21102;BME280;10709;49.006;12.100;2023-03-18T11:25:22;48679.44;;;-146.00;59.44
21102;BME280;10709;49.006;12.100;2023-03-18T11:27:57;48691.19;;;-146.00;59.16
21102;BME280;10709;49.006;12.100;2023-03-18T11:30:29;48699.03;;;-146.00;59.15
21102;BME280;10709;49.006;12.100;2023-03-18T11:33:03;48667.69;;;-146.00;59.66
21102;BME280;10709;49.006;12.100;2023-03-18T11:38:26;48671.59;;;-146.00;58.65
21102;BME280;10709;49.006;12.100;2023-03-18T11:41:17;48679.44;;;-146.00;59.21
21102;BME280;10709;49.006;12.100;2023-03-18T11:44:02;48679.44;;;-146.00;58.68
21102;BME280;10709;49.006;12.100;2023-03-18T11:46:40;48702.94;;;-146.00;58.82
21102;BME280;10709;49.006;12.100;2023-03-18T11:49:12;48706.84;;;-146.00;58.17
21102;BME280;10709;49.006;12.100;2023-03-18T11:51:45;48697.06;;;-146.00;59.21
21102;BME280;10709;49.006;12.100;2023-03-18T11:57:15;48659.84;;;-146.00;59.31
21102;BME280;10709;49.006;12.100;2023-03-18T12:02:34;48700.97;;;-146.00;58.90
21102;BME280;10709;49.006;12.100;2023-03-18T12:08:11;48714.69;;;-146.00;59.32
21102;BME280;10709;49.006;12.100;2023-03-18T12:10:44;48689.22;;;-146.00;59.47
21102;BME280;10709;49.006;12.100;2023-03-18T12:27:12;48699.03;;;-146.00;58.14
21102;BME280;10709;49.006;12.100;2023-03-18T12:32:27;48718.59;;;-146.00;58.66
21102;BME280;10709;49.006;12.100;2023-03-18T12:35:03;48699.03;;;-146.00;58.89
21102;BME280;10709;49.006;12.100;2023-03-18T12:37:46;48699.03;;;-146.00;58.68
21102;BME280;10709;49.006;12.100;2023-03-18T12:40:31;48691.19;;;-146.00;57.73
21102;BME280;10709;49.006;12.100;2023-03-18T12:43:28;48687.28;;;-146.00;57.84
21102;BME280;10709;49.006;12.100;2023-03-18T12:48:49;48685.31;;;-146.00;57.53
21102;BME280;10709;49.006;12.100;2023-03-18T12:51:23;48695.09;;;-146.00;57.52
21102;BME280;10709;49.006;12.100;2023-03-18T12:53:53;48722.53;;;-146.00;57.45
21102;BME280;10709;49.006;12.100;2023-03-18T12:56:26;48716.66;;;-146.00;57.23
21102;BME280;10709;49.006;12.100;2023-03-18T12:59:07;48710.78;;;-146.00;57.50
21102;BME280;10709;49.006;12.100;2023-03-18T13:01:41;48718.59;;;-146.00;57.73
21102;BME280;10709;49.006;12.100;2023-03-18T13:04:18;48706.84;;;-146.00;57.42
21102;BME280;10709;49.006;12.100;2023-03-18T13:06:57;48699.03;;;-146.00;57.77
21102;BME280;10709;49.006;12.100;2023-03-18T13:09:36;48706.84;;;-146.00;57.96
21102;BME280;10709;49.006;12.100;2023-03-18T13:12:16;48706.84;;;-146.00;58.21
21102;BME280;10709;49.006;12.100;2023-03-18T13:15:09;48714.69;;;-146.00;58.06
21102;BME280;10709;49.006;12.100;2023-03-18T13:17:41;48728.41;;;-146.00;58.13
21102;BME280;10709;49.006;12.100;2023-03-18T13:20:11;48718.59;;;-146.00;57.94
21102;BME280;10709;49.006;12.100;2023-03-18T13:25:35;48706.84;;;-146.00;57.36
21102;BME280;10709;49.006;12.100;2023-03-18T13:31:40;48706.84;;;-146.00;56.93
21102;BME280;10709;49.006;12.100;2023-03-18T13:34:43;48714.69;;;-146.00;56.30
21102;BME280;10709;49.006;12.100;2023-03-18T13:40:18;48742.13;;;-146.00;57.11
21102;BME280;10709;49.006;12.100;2023-03-18T13:42:49;48699.03;;;-146.00;57.06
21102;BME280;10709;49.006;12.100;2023-03-18T13:45:23;48710.78;;;-146.00;56.72
21102;BME280;10709;49.006;12.100;2023-03-18T13:48:12;48726.44;;;-146.00;57.60
21102;BME280;10709;49.006;12.100;2023-03-18T13:50:43;48714.69;;;-146.00;56.66
21102;BME280;10709;49.006;12.100;2023-03-18T13:53:29;48706.84;;;-146.00;56.81
21102;BME280;10709;49.006;12.100;2023-03-18T13:58:24;48718.59;;;-146.00;59.08